sensor_id;sensor_type;location;lat;lon;timestamp;pressure;altitude;pressure_sealevel;temperature;humidity
43480;BME280;29067;35.492;-97.520;2022-10-16T00:01:22;96869.19;;;31.75;25.50
43480;BME280;29067;35.492;-97.520;2022-10-16T00:03:50;96872.69;;;30.88;26.06
43480;BME280;29067;35.492;-97.520;2022-10-16T00:06:20;96874.21;;;31.79;25.68
43480;BME280;29067;35.492;-97.520;2022-10-16T00:08:50;96881.25;;;31.39;26.28
43480;BME280;29067;35.492;-97.520;2022-10-16T00:11:20;96884.34;;;30.75;26.51
43480;BME280;29067;35.492;-97.520;2022-10-16T00:13:50;96884.53;;;31.31;26.31
43480;BME280;29067;35.492;-97.520;2022-10-16T00:16:19;96884.10;;;29.75;26.89
43480;BME280;29067;35.492;-97.520;2022-10-16T00:18:47;96884.44;;;31.32;26.44
43480;BME280;29067;35.492;-97.520;2022-10-16T00:21:18;96879.60;;;30.70;26.91
43480;BME280;29067;35.492;-97.520;2022-10-16T00:23:46;96878.75;;;30.98;26.67
43480;BME280;29067;35.492;-97.520;2022-10-16T00:26:18;96878.60;;;31.47;26.76
43480;BME280;29067;35.492;-97.520;2022-10-16T00:28:46;96881.05;;;30.43;27.06
43480;BME280;29067;35.492;-97.520;2022-10-16T00:31:15;96888.38;;;29.56;28.03
43480;BME280;29067;35.492;-97.520;2022-10-16T00:33:44;96887.39;;;29.68;28.26
43480;BME280;29067;35.492;-97.520;2022-10-16T00:36:14;96889.08;;;30.58;27.80
43480;BME280;29067;35.492;-97.520;2022-10-16T00:38:43;96892.14;;;31.19;27.34
43480;BME280;29067;35.492;-97.520;2022-10-16T00:41:14;96895.33;;;30.72;27.68
43480;BME280;29067;35.492;-97.520;2022-10-16T00:43:45;96897.20;;;30.81;27.43
43480;BME280;29067;35.492;-97.520;2022-10-16T00:46:16;96900.94;;;31.22;27.71
43480;BME280;29067;35.492;-97.520;2022-10-16T00:48:50;96910.17;;;28.78;28.77
43480;BME280;29067;35.492;-97.520;2022-10-16T00:51:23;96900.63;;;31.26;27.89
43480;BME280;29067;35.492;-97.520;2022-10-16T00:53:53;96900.98;;;30.49;28.25
43480;BME280;29067;35.492;-97.520;2022-10-16T00:56:21;96900.69;;;30.02;28.83
43480;BME280;29067;35.492;-97.520;2022-10-16T00:58:49;96901.61;;;30.47;28.67
43480;BME280;29067;35.492;-97.520;2022-10-16T01:01:17;96899.45;;;30.80;28.48
43480;BME280;29067;35.492;-97.520;2022-10-16T01:03:45;96897.71;;;30.41;28.73
43480;BME280;29067;35.492;-97.520;2022-10-16T01:06:22;96898.94;;;29.04;29.63
43480;BME280;29067;35.492;-97.520;2022-10-16T01:09:01;96903.92;;;28.26;30.55
43480;BME280;29067;35.492;-97.520;2022-10-16T01:11:41;96907.22;;;28.75;30.27
43480;BME280;29067;35.492;-97.520;2022-10-16T01:14:18;96914.55;;;29.12;30.20
43480;BME280;29067;35.492;-97.520;2022-10-16T01:16:51;96922.87;;;29.15;29.99
43480;BME280;29067;35.492;-97.520;2022-10-16T01:19:33;96929.27;;;29.38;29.74
43480;BME280;29067;35.492;-97.520;2022-10-16T01:22:04;96930.04;;;29.04;30.37
43480;BME280;29067;35.492;-97.520;2022-10-16T01:24:39;96930.45;;;28.42;31.10
43480;BME280;29067;35.492;-97.520;2022-10-16T01:27:09;96935.94;;;27.51;31.81
43480;BME280;29067;35.492;-97.520;2022-10-16T01:29:47;96941.67;;;26.99;32.72
43480;BME280;29067;35.492;-97.520;2022-10-16T01:32:19;96943.66;;;27.69;31.93
43480;BME280;29067;35.492;-97.520;2022-10-16T01:34:51;96946.14;;;29.10;31.48
43480;BME280;29067;35.492;-97.520;2022-10-16T01:37:29;96950.25;;;28.24;31.75
43480;BME280;29067;35.492;-97.520;2022-10-16T01:40:00;96956.04;;;28.71;31.26
43480;BME280;29067;35.492;-97.520;2022-10-16T01:42:33;96965.46;;;29.24;31.05
43480;BME280;29067;35.492;-97.520;2022-10-16T01:45:05;96963.02;;;28.37;31.37
43480;BME280;29067;35.492;-97.520;2022-10-16T01:47:36;96960.72;;;28.43;31.12
43480;BME280;29067;35.492;-97.520;2022-10-16T01:50:05;96957.89;;;27.92;31.93
43480;BME280;29067;35.492;-97.520;2022-10-16T01:52:35;96959.84;;;27.77;32.67
43480;BME280;29067;35.492;-97.520;2022-10-16T01:55:07;96962.36;;;26.59;33.85
43480;BME280;29067;35.492;-97.520;2022-10-16T01:57:39;96961.05;;;28.35;32.80
43480;BME280;29067;35.492;-97.520;2022-10-16T02:00:12;96958.60;;;28.34;33.46
43480;BME280;29067;35.492;-97.520;2022-10-16T02:02:43;96955.34;;;29.23;32.59
43480;BME280;29067;35.492;-97.520;2022-10-16T02:05:18;96952.17;;;27.38;32.67
43480;BME280;29067;35.492;-97.520;2022-10-16T02:07:48;96956.38;;;26.61;32.92
43480;BME280;29067;35.492;-97.520;2022-10-16T02:10:16;96962.77;;;27.01;32.50
43480;BME280;29067;35.492;-97.520;2022-10-16T02:12:48;96975.83;;;27.67;32.45
43480;BME280;29067;35.492;-97.520;2022-10-16T02:15:18;96981.94;;;26.39;32.77
43480;BME280;29067;35.492;-97.520;2022-10-16T02:17:45;96980.94;;;24.56;33.86
43480;BME280;29067;35.492;-97.520;2022-10-16T02:20:13;96982.40;;;24.56;34.09
43480;BME280;29067;35.492;-97.520;2022-10-16T02:22:42;96982.80;;;24.25;34.49
43480;BME280;29067;35.492;-97.520;2022-10-16T02:25:15;96982.84;;;24.99;33.97
43480;BME280;29067;35.492;-97.520;2022-10-16T02:27:50;96989.99;;;24.41;34.31
43480;BME280;29067;35.492;-97.520;2022-10-16T02:30:25;97006.05;;;25.26;33.71
43480;BME280;29067;35.492;-97.520;2022-10-16T02:32:56;97005.14;;;24.99;33.90
43480;BME280;29067;35.492;-97.520;2022-10-16T02:35:28;96999.87;;;24.11;34.83
43480;BME280;29067;35.492;-97.520;2022-10-16T02:37:58;97004.50;;;23.70;35.22
43480;BME280;29067;35.492;-97.520;2022-10-16T02:40:27;97005.14;;;23.88;35.41
43480;BME280;29067;35.492;-97.520;2022-10-16T02:42:55;97004.65;;;24.75;34.71
43480;BME280;29067;35.492;-97.520;2022-10-16T02:45:23;97015.82;;;23.39;35.33
43480;BME280;29067;35.492;-97.520;2022-10-16T02:47:53;97020.99;;;23.70;34.78
43480;BME280;29067;35.492;-97.520;2022-10-16T02:50:21;97025.89;;;24.53;34.34
43480;BME280;29067;35.492;-97.520;2022-10-16T02:52:48;97025.85;;;23.55;35.54
43480;BME280;29067;35.492;-97.520;2022-10-16T02:55:16;97030.51;;;23.76;35.16
43480;BME280;29067;35.492;-97.520;2022-10-16T02:57:44;97039.25;;;22.77;36.08
43480;BME280;29067;35.492;-97.520;2022-10-16T03:00:14;97039.66;;;23.45;35.59
43480;BME280;29067;35.492;-97.520;2022-10-16T03:02:42;97052.18;;;24.66;34.52
43480;BME280;29067;35.492;-97.520;2022-10-16T03:05:11;97068.63;;;22.61;35.96
43480;BME280;29067;35.492;-97.520;2022-10-16T03:07:38;97085.77;;;22.81;36.46
43480;BME280;29067;35.492;-97.520;2022-10-16T03:10:07;97090.88;;;24.13;34.56
43480;BME280;29067;35.492;-97.520;2022-10-16T03:12:34;97077.58;;;24.76;34.26
43480;BME280;29067;35.492;-97.520;2022-10-16T03:15:02;97073.05;;;23.80;34.83
43480;BME280;29067;35.492;-97.520;2022-10-16T03:17:32;97078.50;;;23.24;35.34
43480;BME280;29067;35.492;-97.520;2022-10-16T03:20:00;97091.35;;;23.75;34.90
43480;BME280;29067;35.492;-97.520;2022-10-16T03:22:28;97128.85;;;23.88;34.68
43480;BME280;29067;35.492;-97.520;2022-10-16T03:24:56;97190.58;;;22.26;35.88
43480;BME280;29067;35.492;-97.520;2022-10-16T03:27:23;97205.00;;;20.34;37.47
43480;BME280;29067;35.492;-97.520;2022-10-16T03:29:51;97223.11;;;19.59;37.11
43480;BME280;29067;35.492;-97.520;2022-10-16T03:32:18;97211.56;;;19.90;36.52
43480;BME280;29067;35.492;-97.520;2022-10-16T03:34:46;97232.72;;;18.76;38.80
43480;BME280;29067;35.492;-97.520;2022-10-16T03:37:14;97156.35;;;16.39;44.84
43480;BME280;29067;35.492;-97.520;2022-10-16T03:39:41;97285.62;;;16.98;51.91
43480;BME280;29067;35.492;-97.520;2022-10-16T03:42:09;97347.67;;;13.93;71.54
43480;BME280;29067;35.492;-97.520;2022-10-16T03:44:37;97386.97;;;13.56;78.21
43480;BME280;29067;35.492;-97.520;2022-10-16T03:47:05;97400.14;;;13.26;89.59
43480;BME280;29067;35.492;-97.520;2022-10-16T03:49:33;97422.08;;;12.50;97.66
43480;BME280;29067;35.492;-97.520;2022-10-16T03:52:00;97437.60;;;13.72;96.34
43480;BME280;29067;35.492;-97.520;2022-10-16T03:54:28;97434.76;;;14.22;88.79
43480;BME280;29067;35.492;-97.520;2022-10-16T03:56:56;97425.50;;;14.78;85.11
43480;BME280;29067;35.492;-97.520;2022-10-16T03:59:24;97432.18;;;14.17;88.42
43480;BME280;29067;35.492;-97.520;2022-10-16T04:01:51;97429.87;;;14.93;83.11
43480;BME280;29067;35.492;-97.520;2022-10-16T04:04:19;97427.73;;;14.60;79.94
43480;BME280;29067;35.492;-97.520;2022-10-16T04:06:47;97415.26;;;16.00;78.06
43480;BME280;29067;35.492;-97.520;2022-10-16T04:09:14;97403.99;;;15.64;83.56
43480;BME280;29067;35.492;-97.520;2022-10-16T04:11:42;97405.86;;;15.59;83.59
43480;BME280;29067;35.492;-97.520;2022-10-16T04:14:10;97400.94;;;15.84;83.78
43480;BME280;29067;35.492;-97.520;2022-10-16T04:16:38;97390.53;;;15.33;81.22
43480;BME280;29067;35.492;-97.520;2022-10-16T04:19:05;97376.61;;;17.12;75.83
43480;BME280;29067;35.492;-97.520;2022-10-16T04:21:33;97365.59;;;14.67;92.42
43480;BME280;29067;35.492;-97.520;2022-10-16T04:24:01;97351.59;;;15.12;85.92
43480;BME280;29067;35.492;-97.520;2022-10-16T04:26:29;97342.48;;;14.32;94.95
43480;BME280;29067;35.492;-97.520;2022-10-16T04:28:57;97331.71;;;14.24;92.66
43480;BME280;29067;35.492;-97.520;2022-10-16T04:31:25;97329.41;;;13.96;97.90
43480;BME280;29067;35.492;-97.520;2022-10-16T04:33:52;97319.09;;;13.22;100.00
43480;BME280;29067;35.492;-97.520;2022-10-16T04:36:20;97305.39;;;13.17;100.00
43480;BME280;29067;35.492;-97.520;2022-10-16T04:38:48;97281.94;;;13.77;100.00
43480;BME280;29067;35.492;-97.520;2022-10-16T04:41:16;97261.21;;;13.80;100.00
43480;BME280;29067;35.492;-97.520;2022-10-16T04:43:43;97238.26;;;14.52;95.38
43480;BME280;29067;35.492;-97.520;2022-10-16T04:46:11;97199.95;;;14.16;100.00
43480;BME280;29067;35.492;-97.520;2022-10-16T04:48:39;97133.16;;;14.10;100.00
43480;BME280;29067;35.492;-97.520;2022-10-16T04:51:06;97064.71;;;12.68;100.00
43480;BME280;29067;35.492;-97.520;2022-10-16T04:53:34;97051.20;;;12.79;100.00
43480;BME280;29067;35.492;-97.520;2022-10-16T04:56:02;97039.81;;;13.18;100.00
43480;BME280;29067;35.492;-97.520;2022-10-16T04:58:31;97040.88;;;13.61;97.57
43480;BME280;29067;35.492;-97.520;2022-10-16T05:00:58;97036.13;;;14.96;86.85
43480;BME280;29067;35.492;-97.520;2022-10-16T05:03:26;97053.97;;;14.62;83.09
43480;BME280;29067;35.492;-97.520;2022-10-16T05:05:54;97068.21;;;15.88;92.29
43480;BME280;29067;35.492;-97.520;2022-10-16T05:08:21;97076.82;;;15.83;81.65
43480;BME280;29067;35.492;-97.520;2022-10-16T05:10:49;97084.72;;;15.96;84.16
43480;BME280;29067;35.492;-97.520;2022-10-16T05:13:17;97089.01;;;16.15;83.11
43480;BME280;29067;35.492;-97.520;2022-10-16T05:15:47;97104.26;;;15.88;86.06
43480;BME280;29067;35.492;-97.520;2022-10-16T05:18:15;97116.34;;;16.19;84.06
43480;BME280;29067;35.492;-97.520;2022-10-16T05:20:43;97118.67;;;16.94;79.77
43480;BME280;29067;35.492;-97.520;2022-10-16T05:23:10;97117.58;;;16.74;79.89
43480;BME280;29067;35.492;-97.520;2022-10-16T05:25:38;97113.90;;;16.24;78.49
43480;BME280;29067;35.492;-97.520;2022-10-16T05:28:06;97100.63;;;15.33;82.36
43480;BME280;29067;35.492;-97.520;2022-10-16T05:30:33;97109.89;;;16.56;79.35
43480;BME280;29067;35.492;-97.520;2022-10-16T05:33:01;97134.39;;;17.78;76.57
43480;BME280;29067;35.492;-97.520;2022-10-16T05:35:29;97147.23;;;17.93;73.92
43480;BME280;29067;35.492;-97.520;2022-10-16T05:37:56;97169.93;;;18.79;69.45
43480;BME280;29067;35.492;-97.520;2022-10-16T05:40:24;97182.78;;;16.46;77.62
43480;BME280;29067;35.492;-97.520;2022-10-16T05:42:55;97177.86;;;17.36;73.73
43480;BME280;29067;35.492;-97.520;2022-10-16T05:45:23;97190.74;;;16.97;76.51
43480;BME280;29067;35.492;-97.520;2022-10-16T05:47:51;97199.35;;;17.15;74.14
43480;BME280;29067;35.492;-97.520;2022-10-16T05:50:19;97188.17;;;18.15;72.68
43480;BME280;29067;35.492;-97.520;2022-10-16T05:52:47;97202.24;;;16.98;74.19
43480;BME280;29067;35.492;-97.520;2022-10-16T05:55:15;97237.23;;;17.95;75.34
43480;BME280;29067;35.492;-97.520;2022-10-16T05:57:42;97247.46;;;17.72;69.11
43480;BME280;29067;35.492;-97.520;2022-10-16T06:00:11;97258.39;;;17.00;69.40
43480;BME280;29067;35.492;-97.520;2022-10-16T06:02:39;97271.39;;;16.54;73.60
43480;BME280;29067;35.492;-97.520;2022-10-16T06:05:07;97269.93;;;16.95;70.57
43480;BME280;29067;35.492;-97.520;2022-10-16T06:07:35;97261.96;;;16.66;70.33
43480;BME280;29067;35.492;-97.520;2022-10-16T06:10:04;97268.34;;;16.78;72.53
43480;BME280;29067;35.492;-97.520;2022-10-16T06:12:32;97262.80;;;17.26;72.33
43480;BME280;29067;35.492;-97.520;2022-10-16T06:14:59;97268.39;;;18.62;68.79
43480;BME280;29067;35.492;-97.520;2022-10-16T06:17:27;97266.18;;;18.92;68.26
43480;BME280;29067;35.492;-97.520;2022-10-16T06:19:55;97266.48;;;17.34;71.58
43480;BME280;29067;35.492;-97.520;2022-10-16T06:22:23;97276.40;;;17.61;68.94
43480;BME280;29067;35.492;-97.520;2022-10-16T06:24:50;97286.79;;;16.90;74.30
43480;BME280;29067;35.492;-97.520;2022-10-16T06:27:18;97301.81;;;16.95;74.30
43480;BME280;29067;35.492;-97.520;2022-10-16T06:29:46;97285.54;;;15.30;78.71
43480;BME280;29067;35.492;-97.520;2022-10-16T06:32:13;97238.84;;;15.71;84.82
43480;BME280;29067;35.492;-97.520;2022-10-16T06:34:41;97227.41;;;14.97;86.11
43480;BME280;29067;35.492;-97.520;2022-10-16T06:37:09;97271.63;;;15.88;90.08
43480;BME280;29067;35.492;-97.520;2022-10-16T06:39:36;97302.85;;;15.71;86.88
43480;BME280;29067;35.492;-97.520;2022-10-16T06:42:04;97299.80;;;15.25;85.76
43480;BME280;29067;35.492;-97.520;2022-10-16T06:44:32;97273.54;;;15.62;84.04
43480;BME280;29067;35.492;-97.520;2022-10-16T06:47:00;97263.22;;;15.37;86.01
43480;BME280;29067;35.492;-97.520;2022-10-16T06:49:28;97276.32;;;16.27;81.44
43480;BME280;29067;35.492;-97.520;2022-10-16T06:51:56;97265.06;;;16.40;84.57
43480;BME280;29067;35.492;-97.520;2022-10-16T06:54:23;97249.01;;;16.94;75.83
43480;BME280;29067;35.492;-97.520;2022-10-16T06:56:52;97231.95;;;15.52;76.52
43480;BME280;29067;35.492;-97.520;2022-10-16T06:59:20;97232.22;;;16.21;73.61
43480;BME280;29067;35.492;-97.520;2022-10-16T07:01:48;97243.06;;;16.17;73.77
43480;BME280;29067;35.492;-97.520;2022-10-16T07:04:15;97255.66;;;16.03;77.24
43480;BME280;29067;35.492;-97.520;2022-10-16T07:06:43;97261.97;;;16.48;75.26
43480;BME280;29067;35.492;-97.520;2022-10-16T07:09:11;97257.11;;;15.26;75.28
43480;BME280;29067;35.492;-97.520;2022-10-16T07:11:40;97248.22;;;13.75;73.83
43480;BME280;29067;35.492;-97.520;2022-10-16T07:14:14;97246.11;;;14.80;70.24
43480;BME280;29067;35.492;-97.520;2022-10-16T07:16:43;97251.80;;;14.27;71.86
43480;BME280;29067;35.492;-97.520;2022-10-16T07:19:11;97251.44;;;13.76;70.93
43480;BME280;29067;35.492;-97.520;2022-10-16T07:21:38;97259.58;;;14.92;71.27
43480;BME280;29067;35.492;-97.520;2022-10-16T07:24:11;97281.51;;;15.39;73.09
43480;BME280;29067;35.492;-97.520;2022-10-16T07:26:40;97298.63;;;15.39;67.36
43480;BME280;29067;35.492;-97.520;2022-10-16T07:29:12;97302.17;;;15.84;64.49
43480;BME280;29067;35.492;-97.520;2022-10-16T07:31:41;97311.67;;;15.57;66.03
43480;BME280;29067;35.492;-97.520;2022-10-16T07:34:10;97311.04;;;15.73;60.50
43480;BME280;29067;35.492;-97.520;2022-10-16T07:36:38;97321.68;;;14.93;60.73
43480;BME280;29067;35.492;-97.520;2022-10-16T07:39:06;97328.27;;;14.77;60.40
43480;BME280;29067;35.492;-97.520;2022-10-16T07:41:35;97326.73;;;14.39;59.26
43480;BME280;29067;35.492;-97.520;2022-10-16T07:44:03;97319.04;;;13.79;59.12
43480;BME280;29067;35.492;-97.520;2022-10-16T07:46:31;97325.11;;;14.27;59.76
43480;BME280;29067;35.492;-97.520;2022-10-16T07:49:00;97338.99;;;15.15;58.75
43480;BME280;29067;35.492;-97.520;2022-10-16T07:51:28;97349.87;;;15.27;56.91
43480;BME280;29067;35.492;-97.520;2022-10-16T07:53:56;97342.02;;;14.58;56.71
43480;BME280;29067;35.492;-97.520;2022-10-16T07:56:24;97324.96;;;14.39;56.55
43480;BME280;29067;35.492;-97.520;2022-10-16T07:58:52;97323.85;;;13.85;59.20
43480;BME280;29067;35.492;-97.520;2022-10-16T08:01:20;97325.96;;;12.76;59.70
43480;BME280;29067;35.492;-97.520;2022-10-16T08:03:50;97331.68;;;13.72;58.70
43480;BME280;29067;35.492;-97.520;2022-10-16T08:06:19;97325.76;;;12.67;59.69
43480;BME280;29067;35.492;-97.520;2022-10-16T08:08:48;97307.28;;;12.96;61.43
43480;BME280;29067;35.492;-97.520;2022-10-16T08:11:16;97320.15;;;12.99;60.77
43480;BME280;29067;35.492;-97.520;2022-10-16T08:13:44;97334.87;;;13.19;60.22
43480;BME280;29067;35.492;-97.520;2022-10-16T08:16:12;97340.56;;;12.93;60.03
43480;BME280;29067;35.492;-97.520;2022-10-16T08:18:41;97351.35;;;13.62;59.24
43480;BME280;29067;35.492;-97.520;2022-10-16T08:21:13;97355.85;;;14.86;57.88
43480;BME280;29067;35.492;-97.520;2022-10-16T08:23:42;97356.42;;;14.08;56.06
43480;BME280;29067;35.492;-97.520;2022-10-16T08:26:10;97361.73;;;13.93;57.96
43480;BME280;29067;35.492;-97.520;2022-10-16T08:28:38;97358.02;;;14.25;54.73
43480;BME280;29067;35.492;-97.520;2022-10-16T08:31:09;97347.15;;;14.04;56.73
43480;BME280;29067;35.492;-97.520;2022-10-16T08:33:38;97336.97;;;13.84;57.34
43480;BME280;29067;35.492;-97.520;2022-10-16T08:36:07;97327.41;;;14.60;55.21
43480;BME280;29067;35.492;-97.520;2022-10-16T08:38:38;97322.49;;;14.65;54.90
43480;BME280;29067;35.492;-97.520;2022-10-16T08:43:31;97339.00;;;15.85;53.78
43480;BME280;29067;35.492;-97.520;2022-10-16T08:46:14;97339.59;;;14.53;52.86
43480;BME280;29067;35.492;-97.520;2022-10-16T08:48:46;97340.41;;;15.41;54.35
43480;BME280;29067;35.492;-97.520;2022-10-16T08:51:20;97342.66;;;15.41;52.91
43480;BME280;29067;35.492;-97.520;2022-10-16T08:53:54;97356.61;;;15.24;55.01
43480;BME280;29067;35.492;-97.520;2022-10-16T08:56:23;97345.99;;;15.49;51.39
43480;BME280;29067;35.492;-97.520;2022-10-16T08:58:52;97338.63;;;14.92;52.57
43480;BME280;29067;35.492;-97.520;2022-10-16T09:01:23;97341.03;;;15.38;51.63
43480;BME280;29067;35.492;-97.520;2022-10-16T09:04:06;97349.37;;;15.76;52.72
43480;BME280;29067;35.492;-97.520;2022-10-16T09:06:46;97352.67;;;15.91;50.49
43480;BME280;29067;35.492;-97.520;2022-10-16T09:09:30;97362.28;;;16.56;49.30
43480;BME280;29067;35.492;-97.520;2022-10-16T09:12:05;97366.13;;;15.72;51.82
43480;BME280;29067;35.492;-97.520;2022-10-16T09:14:43;97368.26;;;17.15;48.03
43480;BME280;29067;35.492;-97.520;2022-10-16T09:17:24;97364.31;;;17.09;47.13
43480;BME280;29067;35.492;-97.520;2022-10-16T09:20:00;97364.49;;;15.73;50.76
43480;BME280;29067;35.492;-97.520;2022-10-16T09:22:32;97363.50;;;16.24;49.30
43480;BME280;29067;35.492;-97.520;2022-10-16T09:25:04;97377.02;;;15.02;50.65
43480;BME280;29067;35.492;-97.520;2022-10-16T09:27:38;97370.20;;;16.83;49.51
43480;BME280;29067;35.492;-97.520;2022-10-16T09:30:12;97371.89;;;16.96;48.92
43480;BME280;29067;35.492;-97.520;2022-10-16T09:32:42;97373.78;;;16.63;47.38
43480;BME280;29067;35.492;-97.520;2022-10-16T09:35:14;97374.79;;;16.09;48.86
43480;BME280;29067;35.492;-97.520;2022-10-16T09:37:45;97366.24;;;16.36;49.86
43480;BME280;29067;35.492;-97.520;2022-10-16T09:40:24;97357.29;;;15.81;48.74
43480;BME280;29067;35.492;-97.520;2022-10-16T09:42:57;97356.92;;;16.61;51.42
43480;BME280;29067;35.492;-97.520;2022-10-16T09:45:29;97368.21;;;15.91;52.98
43480;BME280;29067;35.492;-97.520;2022-10-16T09:47:56;97371.61;;;16.77;49.71
43480;BME280;29067;35.492;-97.520;2022-10-16T09:50:26;97370.97;;;16.85;51.22
43480;BME280;29067;35.492;-97.520;2022-10-16T09:53:13;97363.04;;;16.90;50.46
43480;BME280;29067;35.492;-97.520;2022-10-16T09:55:49;97361.04;;;14.85;54.72
43480;BME280;29067;35.492;-97.520;2022-10-16T09:58:17;97355.00;;;15.20;51.81
43480;BME280;29067;35.492;-97.520;2022-10-16T10:00:50;97352.63;;;15.07;52.05
43480;BME280;29067;35.492;-97.520;2022-10-16T10:03:33;97351.33;;;15.44;50.43
43480;BME280;29067;35.492;-97.520;2022-10-16T10:06:07;97350.44;;;14.53;49.50
43480;BME280;29067;35.492;-97.520;2022-10-16T10:08:54;97346.06;;;14.60;50.13
43480;BME280;29067;35.492;-97.520;2022-10-16T10:11:46;97342.79;;;14.32;48.87
43480;BME280;29067;35.492;-97.520;2022-10-16T10:14:20;97353.67;;;14.32;48.86
43480;BME280;29067;35.492;-97.520;2022-10-16T10:16:50;97364.14;;;14.69;49.01
43480;BME280;29067;35.492;-97.520;2022-10-16T10:19:20;97365.20;;;14.88;48.75
43480;BME280;29067;35.492;-97.520;2022-10-16T10:21:50;97367.14;;;14.89;48.50
43480;BME280;29067;35.492;-97.520;2022-10-16T10:24:19;97371.90;;;13.97;49.06
43480;BME280;29067;35.492;-97.520;2022-10-16T10:26:54;97372.93;;;14.07;49.37
43480;BME280;29067;35.492;-97.520;2022-10-16T10:29:34;97385.71;;;13.62;50.01
43480;BME280;29067;35.492;-97.520;2022-10-16T10:32:17;97385.40;;;13.67;51.35
43480;BME280;29067;35.492;-97.520;2022-10-16T10:35:00;97392.45;;;13.79;49.22
43480;BME280;29067;35.492;-97.520;2022-10-16T10:37:47;97403.52;;;14.69;48.44
43480;BME280;29067;35.492;-97.520;2022-10-16T10:40:30;97420.97;;;13.97;48.77
43480;BME280;29067;35.492;-97.520;2022-10-16T10:43:05;97422.92;;;15.18;47.90
43480;BME280;29067;35.492;-97.520;2022-10-16T10:45:42;97432.96;;;14.58;47.15
43480;BME280;29067;35.492;-97.520;2022-10-16T10:48:21;97433.60;;;14.63;46.90
43480;BME280;29067;35.492;-97.520;2022-10-16T10:50:54;97435.58;;;14.34;47.44
43480;BME280;29067;35.492;-97.520;2022-10-16T10:53:38;97443.32;;;15.03;46.80
43480;BME280;29067;35.492;-97.520;2022-10-16T10:56:23;97460.82;;;15.08;46.48
43480;BME280;29067;35.492;-97.520;2022-10-16T10:59:25;97469.52;;;14.88;48.63
43480;BME280;29067;35.492;-97.520;2022-10-16T11:03:13;97476.31;;;16.69;46.81
43480;BME280;29067;35.492;-97.520;2022-10-16T11:05:51;97478.01;;;16.67;45.02
43480;BME280;29067;35.492;-97.520;2022-10-16T11:08:21;97485.43;;;16.33;46.12
43480;BME280;29067;35.492;-97.520;2022-10-16T11:10:54;97502.49;;;15.54;46.77
43480;BME280;29067;35.492;-97.520;2022-10-16T11:13:31;97505.18;;;16.28;47.59
43480;BME280;29067;35.492;-97.520;2022-10-16T11:16:13;97510.49;;;15.61;46.38
43480;BME280;29067;35.492;-97.520;2022-10-16T11:18:50;97504.11;;;15.60;45.84
43480;BME280;29067;35.492;-97.520;2022-10-16T11:21:21;97497.64;;;16.33;46.53
43480;BME280;29067;35.492;-97.520;2022-10-16T11:23:55;97497.04;;;16.11;45.78
43480;BME280;29067;35.492;-97.520;2022-10-16T11:26:27;97502.19;;;16.46;45.93
43480;BME280;29067;35.492;-97.520;2022-10-16T11:28:57;97509.87;;;15.90;45.89
43480;BME280;29067;35.492;-97.520;2022-10-16T11:31:29;97516.86;;;16.07;45.85
43480;BME280;29067;35.492;-97.520;2022-10-16T11:34:04;97526.53;;;16.06;45.87
43480;BME280;29067;35.492;-97.520;2022-10-16T11:36:38;97533.77;;;16.04;45.87
43480;BME280;29067;35.492;-97.520;2022-10-16T11:39:18;97534.15;;;16.90;44.54
43480;BME280;29067;35.492;-97.520;2022-10-16T11:41:49;97539.83;;;16.04;45.40
43480;BME280;29067;35.492;-97.520;2022-10-16T11:44:33;97538.99;;;15.30;47.87
43480;BME280;29067;35.492;-97.520;2022-10-16T11:47:10;97536.15;;;16.33;45.99
43480;BME280;29067;35.492;-97.520;2022-10-16T11:49:42;97537.59;;;15.95;45.72
43480;BME280;29067;35.492;-97.520;2022-10-16T11:52:16;97540.51;;;15.51;45.89
43480;BME280;29067;35.492;-97.520;2022-10-16T11:54:52;97553.12;;;13.76;46.85
43480;BME280;29067;35.492;-97.520;2022-10-16T11:57:25;97557.74;;;14.64;46.76
43480;BME280;29067;35.492;-97.520;2022-10-16T11:59:57;97564.91;;;15.45;47.09
43480;BME280;29067;35.492;-97.520;2022-10-16T12:02:42;97571.63;;;15.09;48.26
43480;BME280;29067;35.492;-97.520;2022-10-16T12:05:24;97587.36;;;15.14;46.69
43480;BME280;29067;35.492;-97.520;2022-10-16T12:08:01;97589.94;;;15.29;45.93
43480;BME280;29067;35.492;-97.520;2022-10-16T12:10:32;97591.05;;;15.61;46.67
43480;BME280;29067;35.492;-97.520;2022-10-16T12:13:00;97593.26;;;15.86;47.55
43480;BME280;29067;35.492;-97.520;2022-10-16T12:15:29;97593.93;;;15.25;47.83
43480;BME280;29067;35.492;-97.520;2022-10-16T12:17:58;97588.09;;;15.90;46.05
43480;BME280;29067;35.492;-97.520;2022-10-16T12:20:29;97593.63;;;15.61;47.76
43480;BME280;29067;35.492;-97.520;2022-10-16T12:22:59;97591.87;;;15.81;46.35
43480;BME280;29067;35.492;-97.520;2022-10-16T12:25:29;97591.93;;;15.57;47.62
43480;BME280;29067;35.492;-97.520;2022-10-16T12:28:00;97589.91;;;16.32;44.65
43480;BME280;29067;35.492;-97.520;2022-10-16T12:30:31;97595.74;;;16.60;46.15
43480;BME280;29067;35.492;-97.520;2022-10-16T12:33:02;97602.99;;;16.84;45.83
43480;BME280;29067;35.492;-97.520;2022-10-16T12:35:33;97611.19;;;15.99;47.30
43480;BME280;29067;35.492;-97.520;2022-10-16T12:38:08;97618.48;;;16.61;46.79
43480;BME280;29067;35.492;-97.520;2022-10-16T12:40:42;97606.86;;;15.95;45.65
43480;BME280;29067;35.492;-97.520;2022-10-16T12:43:24;97596.42;;;16.89;44.57
43480;BME280;29067;35.492;-97.520;2022-10-16T12:46:01;97597.91;;;16.57;45.89
43480;BME280;29067;35.492;-97.520;2022-10-16T12:48:29;97595.66;;;16.35;45.62
43480;BME280;29067;35.492;-97.520;2022-10-16T12:50:56;97601.37;;;15.82;46.31
43480;BME280;29067;35.492;-97.520;2022-10-16T12:53:26;97632.04;;;15.09;48.94
43480;BME280;29067;35.492;-97.520;2022-10-16T12:56:01;97648.13;;;14.95;46.72
43480;BME280;29067;35.492;-97.520;2022-10-16T12:58:45;97641.98;;;16.49;45.79
43480;BME280;29067;35.492;-97.520;2022-10-16T13:01:27;97647.09;;;16.64;45.81
43480;BME280;29067;35.492;-97.520;2022-10-16T13:04:10;97656.86;;;16.34;46.12